createdAt,value
2022-08-09T00:01:10.231Z,3.30
2022-08-09T00:04:08.509Z,3.20
2022-08-09T00:06:25.359Z,2.90
2022-08-09T00:08:53.347Z,2.90
2022-08-09T00:11:27.625Z,3.00
2022-08-09T00:14:11.855Z,3.00
2022-08-09T00:16:49.287Z,2.90
2022-08-09T00:19:18.494Z,3.00
2022-08-09T00:21:56.274Z,2.90
2022-08-09T00:24:27.151Z,2.70
2022-08-09T00:26:54.238Z,3.10
2022-08-09T00:29:39.200Z,2.70
2022-08-09T00:32:07.933Z,2.90
2022-08-09T00:34:39.420Z,2.60
2022-08-09T00:37:13.242Z,2.80
2022-08-09T00:40:10.254Z,2.80
2022-08-09T00:44:10.517Z,2.80
2022-08-09T00:45:16.267Z,3.20
2022-08-09T00:47:44.130Z,2.90
2022-08-09T00:50:14.623Z,3.10
2022-08-09T00:52:42.302Z,2.70
2022-08-09T00:55:10.316Z,2.80
2022-08-09T00:57:59.241Z,2.90
2022-08-09T01:00:27.615Z,3.00
2022-08-09T01:03:08.420Z,2.80
2022-08-09T01:06:17.560Z,2.90
2022-08-09T01:09:11.047Z,3.00
2022-08-09T01:12:19.319Z,2.90
2022-08-09T01:14:53.286Z,2.80
2022-08-09T01:17:30.744Z,2.90
2022-08-09T01:20:07.007Z,2.70
2022-08-09T01:22:36.671Z,2.90
2022-08-09T01:25:41.536Z,3.20
2022-08-09T01:28:11.476Z,2.80
2022-08-09T01:30:52.418Z,3.20
2022-08-09T01:33:26.016Z,2.80
2022-08-09T01:36:11.556Z,3.20
2022-08-09T01:38:46.377Z,2.90
2022-08-09T01:41:36.438Z,2.90
2022-08-09T01:44:22.865Z,3.20
2022-08-09T01:46:53.075Z,3.20
2022-08-09T01:49:24.174Z,2.80
2022-08-09T01:51:54.900Z,2.70
2022-08-09T01:54:40.148Z,2.80
2022-08-09T01:57:15.006Z,2.70
2022-08-09T01:59:51.495Z,2.90
2022-08-09T02:02:31.094Z,2.90
2022-08-09T02:05:05.156Z,3.00
2022-08-09T02:08:39.642Z,3.10
2022-08-09T02:10:30.022Z,2.90
2022-08-09T02:13:03.332Z,2.60
2022-08-09T02:15:48.853Z,2.90
2022-08-09T02:18:21.982Z,2.90
2022-08-09T02:20:56.695Z,2.70
2022-08-09T02:23:31.817Z,3.00
2022-08-09T02:26:07.850Z,3.10
2022-08-09T02:28:56.501Z,3.00
2022-08-09T02:31:34.181Z,3.00
2022-08-09T02:34:13.395Z,2.70
2022-08-09T02:36:55.364Z,2.90
2022-08-09T02:39:33.700Z,3.50
2022-08-09T02:42:06.008Z,3.50
2022-08-09T02:44:41.431Z,3.20
2022-08-09T02:47:12.619Z,3.10
2022-08-09T02:49:56.995Z,2.80
2022-08-09T02:52:38.342Z,3.00
2022-08-09T02:55:21.129Z,3.00
2022-08-09T02:58:00.299Z,2.80
2022-08-09T03:00:58.155Z,3.00
2022-08-09T03:03:37.197Z,3.10
2022-08-09T03:06:16.111Z,3.10
2022-08-09T03:08:46.415Z,3.50
2022-08-09T03:11:30.185Z,3.90
2022-08-09T03:14:10.843Z,4.30
2022-08-09T03:16:44.786Z,4.00
2022-08-09T03:19:52.688Z,3.90
2022-08-09T03:22:03.321Z,4.20
2022-08-09T03:24:42.827Z,4.00
2022-08-09T03:27:21.518Z,3.90
2022-08-09T03:29:58.040Z,3.90
2022-08-09T03:32:36.759Z,3.90
2022-08-09T03:35:15.053Z,3.70
2022-08-09T03:37:56.027Z,3.90
2022-08-09T03:40:25.332Z,4.00
2022-08-09T03:42:57.822Z,3.90
2022-08-09T03:46:13.661Z,4.00
2022-08-09T03:48:11.407Z,4.00
2022-08-09T03:50:46.142Z,4.50
2022-08-09T03:53:17.050Z,4.60
2022-08-09T03:55:48.506Z,4.20
2022-08-09T03:58:16.921Z,4.60
2022-08-09T04:00:49.777Z,4.30
2022-08-09T04:03:24.729Z,4.40
2022-08-09T04:06:06.015Z,4.00
2022-08-09T04:08:34.256Z,4.70
2022-08-09T04:11:02.020Z,4.80
2022-08-09T04:14:37.396Z,4.40
2022-08-09T04:16:19.986Z,4.60
2022-08-09T04:18:49.267Z,4.70
2022-08-09T04:21:19.284Z,5.00
2022-08-09T04:23:54.357Z,4.50
2022-08-09T04:26:24.950Z,4.30
2022-08-09T04:29:07.872Z,4.60
2022-08-09T04:31:47.070Z,5.20
2022-08-09T04:34:18.909Z,5.00
2022-08-09T04:36:57.281Z,5.10
2022-08-09T04:39:24.204Z,5.10
2022-08-09T04:41:51.116Z,5.10
2022-08-09T04:44:18.725Z,5.60
2022-08-09T04:46:58.862Z,5.20
2022-08-09T04:49:54.121Z,5.10
2022-08-09T04:52:27.023Z,4.80
2022-08-09T04:54:56.308Z,5.10
2022-08-09T04:57:25.098Z,4.80
2022-08-09T04:59:55.955Z,5.30
2022-08-09T05:02:27.555Z,4.90
2022-08-09T05:04:55.696Z,5.30
2022-08-09T05:07:23.730Z,5.00
2022-08-09T05:09:51.421Z,5.60
2022-08-09T05:12:21.054Z,5.50
2022-08-09T05:14:49.528Z,5.60
2022-08-09T05:18:42.843Z,5.30
2022-08-09T05:20:04.889Z,4.70
2022-08-09T05:22:35.761Z,5.00
2022-08-09T05:25:05.342Z,5.60
2022-08-09T05:27:32.226Z,5.40
2022-08-09T05:29:59.145Z,4.90
2022-08-09T05:32:30.057Z,5.60
2022-08-09T05:34:57.165Z,5.10
2022-08-09T05:37:23.995Z,5.30
2022-08-09T05:39:52.720Z,5.40
2022-08-09T05:42:21.526Z,5.40
2022-08-09T05:44:54.139Z,5.50
2022-08-09T05:47:23.064Z,5.50
2022-08-09T05:50:30.348Z,5.10
2022-08-09T05:52:44.373Z,4.90
2022-08-09T05:55:20.867Z,5.00
2022-08-09T05:57:51.160Z,5.20
2022-08-09T06:00:29.711Z,5.50
2022-08-09T06:03:03.508Z,5.00
2022-08-09T06:05:57.632Z,5.50
2022-08-09T06:08:24.567Z,5.40
2022-08-09T06:10:58.119Z,5.50
2022-08-09T06:13:28.551Z,5.30
2022-08-09T06:16:01.718Z,5.60
2022-08-09T06:18:32.518Z,5.20
2022-08-09T06:21:00.763Z,4.80
2022-08-09T06:23:58.820Z,5.50
2022-08-09T06:26:20.082Z,5.40
2022-08-09T06:29:00.330Z,5.10
2022-08-09T06:31:40.265Z,5.10
2022-08-09T06:34:22.802Z,5.30
2022-08-09T06:36:59.332Z,5.20
2022-08-09T06:39:48.544Z,5.00
2022-08-09T06:42:14.914Z,5.60
2022-08-09T06:44:41.658Z,5.20
2022-08-09T06:47:10.733Z,5.50
2022-08-09T06:50:11.823Z,5.20
2022-08-09T06:52:26.392Z,5.50
2022-08-09T06:54:54.263Z,5.50
2022-08-09T06:57:25.741Z,5.40
2022-08-09T07:00:51.878Z,4.90
2022-08-09T07:02:57.797Z,5.50
2022-08-09T07:06:02.398Z,5.50
2022-08-09T07:08:12.295Z,5.30
2022-08-09T07:10:39.656Z,5.40
2022-08-09T07:13:28.392Z,5.20
2022-08-09T07:16:42.831Z,5.30
2022-08-09T07:18:40.215Z,5.40
2022-08-09T07:21:08.464Z,4.90
2022-08-09T07:23:36.244Z,5.00
2022-08-09T07:26:04.726Z,5.10
2022-08-09T07:28:34.795Z,5.10
2022-08-09T07:31:02.165Z,5.00
2022-08-09T07:33:52.796Z,5.20
2022-08-09T07:36:18.624Z,5.30
2022-08-09T07:38:50.186Z,5.10
2022-08-09T07:41:23.735Z,4.80
2022-08-09T07:43:56.458Z,5.00
2022-08-09T07:46:26.835Z,5.20
2022-08-09T07:48:59.649Z,5.30
2022-08-09T07:52:04.353Z,5.70
2022-08-09T07:54:15.143Z,5.20
2022-08-09T07:56:49.119Z,5.50
2022-08-09T07:59:21.224Z,5.90
2022-08-09T08:02:03.255Z,5.40
2022-08-09T08:04:33.019Z,5.20
2022-08-09T08:07:27.052Z,5.20
2022-08-09T08:10:08.027Z,5.70
2022-08-09T08:12:42.352Z,5.70
2022-08-09T08:15:13.872Z,5.90
2022-08-09T08:17:53.868Z,5.00
2022-08-09T08:20:29.336Z,5.30
2022-08-09T08:23:06.706Z,5.60
2022-08-09T08:25:50.312Z,5.10
2022-08-09T08:28:35.475Z,5.30
2022-08-09T08:31:14.383Z,5.30
2022-08-09T08:33:52.981Z,5.80
2022-08-09T08:36:29.570Z,5.40
2022-08-09T08:38:58.562Z,5.10
2022-08-09T08:41:50.291Z,5.50
2022-08-09T08:44:22.977Z,5.30
2022-08-09T08:47:02.765Z,5.60
2022-08-09T08:49:46.465Z,5.90
2022-08-09T08:55:09.949Z,5.20
2022-08-09T08:57:37.456Z,5.60
2022-08-09T09:00:20.674Z,4.90
2022-08-09T09:03:02.814Z,5.50
2022-08-09T09:05:59.880Z,5.60
2022-08-09T09:08:30.814Z,5.30
2022-08-09T09:11:03.478Z,5.40
2022-08-09T09:13:55.406Z,5.20
2022-08-09T09:16:30.721Z,5.50
2022-08-09T09:22:26.643Z,5.30
2022-08-09T09:26:03.841Z,5.30
2022-08-09T09:28:03.727Z,4.90
2022-08-09T09:30:41.890Z,5.10
2022-08-09T09:33:16.919Z,5.10
2022-08-09T09:36:20.676Z,5.30
2022-08-09T09:38:50.806Z,5.40
2022-08-09T09:41:24.995Z,5.10
2022-08-09T09:44:12.793Z,5.10
2022-08-09T09:46:50.449Z,4.70
2022-08-09T09:49:31.795Z,5.10
2022-08-09T09:52:33.662Z,5.20
2022-08-09T09:55:28.632Z,4.60
2022-08-09T09:58:16.413Z,4.70
2022-08-09T10:00:52.610Z,5.00
2022-08-09T10:03:44.799Z,4.70
2022-08-09T10:06:25.110Z,4.90
2022-08-09T10:08:59.340Z,4.90
2022-08-09T10:12:00.875Z,5.00
2022-08-09T10:14:33.118Z,4.80
2022-08-09T10:17:50.830Z,5.30
2022-08-09T10:20:06.284Z,4.90
2022-08-09T10:22:42.303Z,4.70
2022-08-09T10:25:14.457Z,4.80
2022-08-09T10:27:45.330Z,4.40
2022-08-09T10:33:29.599Z,4.10
2022-08-09T10:36:11.428Z,4.80
2022-08-09T10:38:55.964Z,5.20
2022-08-09T10:41:28.022Z,5.30
2022-08-09T10:44:01.439Z,4.80
2022-08-09T10:46:55.736Z,5.00
2022-08-09T10:49:42.463Z,5.30
2022-08-09T10:52:42.982Z,5.00
2022-08-09T10:55:58.306Z,5.10
2022-08-09T10:58:37.196Z,5.40
2022-08-09T11:03:02.713Z,5.10
2022-08-09T11:04:20.051Z,5.30
2022-08-09T11:07:03.032Z,5.40
2022-08-09T11:09:38.619Z,4.60
2022-08-09T11:12:18.501Z,4.80
2022-08-09T11:15:03.649Z,4.30
2022-08-09T11:17:41.841Z,4.20
2022-08-09T11:20:22.658Z,4.10
2022-08-09T11:22:55.383Z,4.60
2022-08-09T11:25:47.154Z,4.10
2022-08-09T11:28:38.928Z,4.30
2022-08-09T11:31:49.378Z,4.10
2022-08-09T11:34:48.401Z,3.50
2022-08-09T11:37:40.622Z,3.40
2022-08-09T11:40:11.202Z,3.30
2022-08-09T11:42:50.074Z,3.60
2022-08-09T11:45:42.441Z,3.80
2022-08-09T11:48:19.355Z,3.60
2022-08-09T11:53:02.971Z,3.40
2022-08-09T11:54:27.950Z,2.90
2022-08-09T11:58:00.355Z,3.10
2022-08-09T12:00:34.175Z,3.60
2022-08-09T12:03:09.954Z,3.00
2022-08-09T12:05:50.796Z,3.10
2022-08-09T12:08:20.086Z,3.00
2022-08-09T12:10:55.170Z,3.30
2022-08-09T12:14:10.681Z,3.60
2022-08-09T12:16:37.657Z,3.30
2022-08-09T12:19:09.434Z,3.20
2022-08-09T12:21:50.671Z,3.00
2022-08-09T12:24:25.199Z,2.70
2022-08-09T12:29:11.081Z,3.00
2022-08-09T12:29:59.984Z,3.20
2022-08-09T12:32:44.713Z,5.30
2022-08-09T12:35:13.413Z,3.60
2022-08-09T12:37:51.526Z,3.40
2022-08-09T12:40:24.700Z,3.10
2022-08-09T12:42:53.479Z,3.20
2022-08-09T12:45:34.441Z,2.80
2022-08-09T12:48:20.473Z,2.50
2022-08-09T12:50:56.106Z,2.90
2022-08-09T12:53:32.132Z,2.60
2022-08-09T12:56:29.783Z,2.80
2022-08-09T12:59:20.775Z,2.60
2022-08-09T13:02:09.306Z,2.50
2022-08-09T13:04:38.826Z,2.60
2022-08-09T13:07:19.311Z,2.60
2022-08-09T13:09:55.591Z,2.30
2022-08-09T13:12:30.779Z,4.50
2022-08-09T13:15:09.648Z,4.60
2022-08-09T13:18:03.319Z,5.30
2022-08-09T13:21:04.371Z,5.60
2022-08-09T13:24:17.188Z,5.80
2022-08-09T13:26:56.460Z,5.30
2022-08-09T13:29:28.426Z,5.00
2022-08-09T13:32:17.220Z,3.30
2022-08-09T13:34:48.498Z,3.00
2022-08-09T13:37:50.824Z,2.80
2022-08-09T13:41:46.298Z,3.60
2022-08-09T13:42:58.802Z,2.70
2022-08-09T13:45:32.611Z,2.50
2022-08-09T13:48:14.611Z,5.70
2022-08-09T13:50:43.144Z,6.20
2022-08-09T13:53:10.398Z,6.20
2022-08-09T13:55:37.891Z,5.40
2022-08-09T13:58:11.513Z,5.70
2022-08-09T14:00:44.834Z,6.10
2022-08-09T14:04:02.198Z,6.00
2022-08-09T14:06:19.302Z,6.50
2022-08-09T14:08:52.954Z,6.40
2022-08-09T14:11:20.912Z,6.40
2022-08-09T14:14:22.795Z,6.60
2022-08-09T14:16:34.734Z,6.60
2022-08-09T14:19:01.622Z,6.60
2022-08-09T14:21:29.252Z,6.40
2022-08-09T14:23:57.467Z,7.00
2022-08-09T14:26:32.846Z,6.30
2022-08-09T14:29:07.952Z,6.50
2022-08-09T14:31:54.555Z,6.90
2022-08-09T14:34:27.386Z,5.80
2022-08-09T14:37:08.026Z,5.80
2022-08-09T14:39:46.869Z,5.30
2022-08-09T14:42:31.827Z,5.20
2022-08-09T14:46:39.853Z,5.50
2022-08-09T14:47:57.494Z,4.90
2022-08-09T14:50:32.533Z,5.30
2022-08-09T14:53:02.383Z,5.60
2022-08-09T14:55:32.582Z,5.70
2022-08-09T14:58:04.674Z,5.60
2022-08-09T15:00:36.344Z,6.60
2022-08-09T15:03:06.409Z,5.30
2022-08-09T15:05:34.678Z,5.50
2022-08-09T15:08:05.727Z,4.70
2022-08-09T15:10:33.952Z,4.50
2022-08-09T15:13:03.421Z,4.50
2022-08-09T15:15:34.326Z,3.60
2022-08-09T15:18:06.583Z,3.70
2022-08-09T15:21:55.589Z,3.80
2022-08-09T15:24:01.407Z,3.50
2022-08-09T15:26:18.864Z,3.80
2022-08-09T15:28:54.828Z,3.60
2022-08-09T15:31:22.265Z,3.60
2022-08-09T15:34:19.589Z,3.60
2022-08-09T15:36:54.113Z,3.10
2022-08-09T15:39:20.985Z,2.90
2022-08-09T15:41:50.498Z,3.20
2022-08-09T15:44:19.667Z,2.80
2022-08-09T15:46:47.470Z,2.90
2022-08-09T15:49:21.860Z,3.70
2022-08-09T15:52:04.499Z,3.50
2022-08-09T15:54:46.204Z,3.00
2022-08-09T15:57:18.978Z,3.10
2022-08-09T16:00:00.724Z,3.50
2022-08-09T16:02:27.562Z,4.30
2022-08-09T16:04:54.416Z,4.10
2022-08-09T16:07:21.123Z,4.00
2022-08-09T16:10:02.315Z,4.20
2022-08-09T16:12:33.469Z,4.70
2022-08-09T16:15:02.135Z,5.10
2022-08-09T16:17:29.202Z,5.10
2022-08-09T16:20:05.027Z,4.90
2022-08-09T16:22:42.049Z,5.00
2022-08-09T16:25:11.224Z,4.60
2022-08-09T16:27:40.738Z,4.80
2022-08-09T16:30:15.364Z,4.60
2022-08-09T16:33:08.642Z,5.00
2022-08-09T16:35:56.507Z,4.80
2022-08-09T16:38:23.897Z,5.50
2022-08-09T16:40:52.297Z,5.20
2022-08-09T16:43:21.001Z,5.40
2022-08-09T16:45:53.394Z,5.60
2022-08-09T16:48:41.000Z,5.60
2022-08-09T16:51:13.622Z,6.00
2022-08-09T16:54:16.594Z,5.70
2022-08-09T16:56:33.241Z,6.00
2022-08-09T16:59:06.450Z,5.80
2022-08-09T17:01:37.271Z,6.00
2022-08-09T17:04:06.670Z,6.00
2022-08-09T17:08:40.584Z,5.90
2022-08-09T17:09:45.457Z,6.00
2022-08-09T17:12:08.526Z,6.50
2022-08-09T17:14:35.428Z,5.70
2022-08-09T17:17:03.770Z,5.60
2022-08-09T17:19:46.364Z,5.50
2022-08-09T17:22:15.301Z,5.40
2022-08-09T17:24:47.901Z,6.00
2022-08-09T17:27:22.695Z,5.20
2022-08-09T17:29:51.093Z,5.70
2022-08-09T17:32:20.448Z,5.30
2022-08-09T17:35:03.954Z,5.20
2022-08-09T17:38:13.069Z,5.40
2022-08-09T17:40:29.655Z,5.00
2022-08-09T17:43:03.258Z,4.90
2022-08-09T17:46:03.142Z,4.50
2022-08-09T17:48:39.003Z,4.40
2022-08-09T17:51:18.042Z,4.50
2022-08-09T17:53:52.418Z,4.70
2022-08-09T17:56:27.468Z,4.80
2022-08-09T17:59:03.166Z,4.50
2022-08-09T18:02:03.282Z,4.10
2022-08-09T18:04:20.305Z,3.60
2022-08-09T18:07:00.009Z,3.70
2022-08-09T18:09:40.935Z,3.90
2022-08-09T18:12:20.371Z,3.90
2022-08-09T18:14:53.769Z,3.60
2022-08-09T18:18:00.887Z,3.50
2022-08-09T18:20:55.624Z,3.50
2022-08-09T18:22:59.893Z,3.80
2022-08-09T18:25:50.782Z,3.50
2022-08-09T18:30:39.574Z,3.30
2022-08-09T18:31:08.000Z,3.60
2022-08-09T18:33:34.966Z,3.30
2022-08-09T18:36:02.316Z,3.20
2022-08-09T18:38:31.890Z,3.30
2022-08-09T18:40:58.729Z,3.00
2022-08-09T18:43:25.573Z,2.90
2022-08-09T18:46:47.374Z,2.70
2022-08-09T18:48:42.587Z,3.70
2022-08-09T18:51:09.701Z,3.20
2022-08-09T18:54:01.050Z,3.40
2022-08-09T18:56:27.876Z,4.10
2022-08-09T18:58:55.901Z,3.90
2022-08-09T19:01:23.400Z,3.60
2022-08-09T19:04:01.277Z,3.60
2022-08-09T19:06:38.452Z,3.20
2022-08-09T19:09:13.617Z,3.10
2022-08-09T19:11:50.325Z,3.20
2022-08-09T19:14:28.977Z,3.40
2022-08-09T19:16:56.048Z,4.20
2022-08-09T19:19:28.082Z,3.30
2022-08-09T19:22:06.595Z,3.40
2022-08-09T19:25:07.478Z,3.80
2022-08-09T19:27:22.377Z,4.60
2022-08-09T19:30:24.927Z,3.60
2022-08-09T19:32:36.802Z,3.60
2022-08-09T19:35:05.581Z,3.90
2022-08-09T19:37:52.753Z,4.30
2022-08-09T19:40:20.691Z,3.70
2022-08-09T19:42:49.576Z,4.80
2022-08-09T19:45:17.737Z,4.00
2022-08-09T19:47:46.165Z,3.70
2022-08-09T19:50:48.811Z,3.70
2022-08-09T19:53:04.631Z,4.40
2022-08-09T19:55:52.933Z,4.60
2022-08-09T19:58:30.144Z,4.60
2022-08-09T20:00:57.992Z,7.70
2022-08-09T20:04:10.150Z,5.20
2022-08-09T20:06:23.255Z,4.90
2022-08-09T20:08:55.494Z,4.00
2022-08-09T20:11:25.802Z,4.10
2022-08-09T20:13:54.708Z,4.50
2022-08-09T20:16:34.006Z,4.10
2022-08-09T20:19:48.424Z,4.40
2022-08-09T20:21:56.503Z,4.40
2022-08-09T20:24:29.528Z,4.60
2022-08-09T20:27:05.722Z,4.10
2022-08-09T20:29:37.762Z,4.40
2022-08-09T20:32:30.483Z,5.00
2022-08-09T20:34:59.726Z,4.60
2022-08-09T20:37:37.735Z,4.60
2022-08-09T20:40:26.225Z,4.90
2022-08-09T20:43:00.048Z,4.90
2022-08-09T20:46:00.317Z,4.60
2022-08-09T20:48:23.158Z,5.10
2022-08-09T20:50:55.636Z,5.00
2022-08-09T20:53:37.768Z,4.90
2022-08-09T20:56:19.936Z,4.30
2022-08-09T20:58:58.664Z,4.90
2022-08-09T21:01:34.155Z,4.80
2022-08-09T21:05:54.122Z,4.60
2022-08-09T21:07:12.319Z,4.90
2022-08-09T21:09:56.183Z,5.20
2022-08-09T21:15:14.844Z,4.80
2022-08-09T21:18:29.858Z,4.70
2022-08-09T21:20:31.116Z,4.80
2022-08-09T21:22:59.636Z,4.60
2022-08-09T21:25:55.423Z,4.80
2022-08-09T21:28:35.848Z,4.70
2022-08-09T21:31:13.693Z,5.30
2022-08-09T21:33:52.456Z,4.90
2022-08-09T21:36:28.867Z,5.20
2022-08-09T21:38:59.274Z,4.80
2022-08-09T21:42:04.738Z,4.90
2022-08-09T21:44:33.276Z,4.90
2022-08-09T21:47:03.703Z,4.80
2022-08-09T21:49:40.430Z,4.60
2022-08-09T21:52:17.599Z,5.30
2022-08-09T21:54:56.824Z,4.80
2022-08-09T21:57:38.154Z,5.40
2022-08-09T22:00:25.924Z,5.40
2022-08-09T22:02:58.306Z,5.70
2022-08-09T22:05:35.568Z,5.60
2022-08-09T22:08:14.835Z,5.40
2022-08-09T22:11:49.742Z,5.70
2022-08-09T22:13:37.200Z,5.30
2022-08-09T22:16:08.888Z,5.50
2022-08-09T22:18:52.880Z,5.60
2022-08-09T22:21:24.853Z,5.60
2022-08-09T22:23:59.252Z,5.80
2022-08-09T22:26:35.589Z,5.50
2022-08-09T22:29:08.838Z,5.30
2022-08-09T22:31:38.207Z,5.60
2022-08-09T22:34:14.846Z,5.80
2022-08-09T22:36:46.181Z,5.60
2022-08-09T22:39:46.622Z,5.80
2022-08-09T22:42:16.271Z,5.80
2022-08-09T22:44:49.252Z,6.10
2022-08-09T22:48:13.623Z,6.00
2022-08-09T22:50:14.589Z,6.20
2022-08-09T22:52:41.361Z,6.10
2022-08-09T22:55:08.628Z,6.20
2022-08-09T22:57:59.906Z,6.10
2022-08-09T23:00:29.290Z,6.30
2022-08-09T23:02:56.852Z,6.20
2022-08-09T23:05:25.434Z,6.40
2022-08-09T23:08:27.626Z,6.60
2022-08-09T23:10:57.084Z,6.60
2022-08-09T23:13:23.870Z,6.50
2022-08-09T23:16:02.968Z,6.30
2022-08-09T23:18:31.632Z,6.50
2022-08-09T23:20:58.494Z,6.60
2022-08-09T23:23:25.335Z,6.90
2022-08-09T23:25:52.218Z,7.50
2022-08-09T23:28:18.914Z,7.00
2022-08-09T23:30:51.505Z,7.30
2022-08-09T23:33:21.270Z,7.30
2022-08-09T23:36:06.403Z,7.10
2022-08-09T23:38:35.028Z,7.40
2022-08-09T23:41:02.722Z,7.80
2022-08-09T23:43:29.416Z,7.40
2022-08-09T23:45:56.199Z,7.30
2022-08-09T23:48:23.097Z,7.30
2022-08-09T23:50:49.813Z,7.20
2022-08-09T23:53:17.647Z,8.50
2022-08-09T23:55:49.469Z,7.70
2022-08-09T23:58:24.248Z,8.30
